sensor_id;sensor_type;location;lat;lon;timestamp;P1;durP1;ratioP1;P2;durP2;ratioP2
76576;SDS011;65441;44.748;37.600;2023-08-17T00:00:02;13.27;;;3.55;;
76576;SDS011;65441;44.748;37.600;2023-08-17T00:02:35;8.25;;;3.47;;
76576;SDS011;65441;44.748;37.600;2023-08-17T00:05:05;8.57;;;3.40;;
76576;SDS011;65441;44.748;37.600;2023-08-17T00:07:33;8.38;;;3.33;;
76576;SDS011;65441;44.748;37.600;2023-08-17T00:10:02;9.60;;;3.78;;
76576;SDS011;65441;44.748;37.600;2023-08-17T00:12:30;7.55;;;3.92;;
76576;SDS011;65441;44.748;37.600;2023-08-17T00:14:59;15.45;;;3.95;;
76576;SDS011;65441;44.748;37.600;2023-08-17T00:17:27;12.13;;;4.00;;
76576;SDS011;65441;44.748;37.600;2023-08-17T00:19:56;8.73;;;3.40;;
76576;SDS011;65441;44.748;37.600;2023-08-17T00:22:26;13.45;;;3.78;;
76576;SDS011;65441;44.748;37.600;2023-08-17T00:24:54;8.27;;;3.70;;
76576;SDS011;65441;44.748;37.600;2023-08-17T00:27:22;16.60;;;3.50;;
76576;SDS011;65441;44.748;37.600;2023-08-17T00:29:50;10.23;;;3.40;;
76576;SDS011;65441;44.748;37.600;2023-08-17T00:32:18;11.23;;;3.55;;
76576;SDS011;65441;44.748;37.600;2023-08-17T00:34:46;11.80;;;3.20;;
76576;SDS011;65441;44.748;37.600;2023-08-17T00:37:14;7.63;;;3.10;;
76576;SDS011;65441;44.748;37.600;2023-08-17T00:39:44;8.18;;;3.70;;
76576;SDS011;65441;44.748;37.600;2023-08-17T00:42:12;7.05;;;3.15;;
76576;SDS011;65441;44.748;37.600;2023-08-17T00:44:41;8.60;;;2.85;;
76576;SDS011;65441;44.748;37.600;2023-08-17T00:47:09;11.27;;;3.13;;
76576;SDS011;65441;44.748;37.600;2023-08-17T00:49:38;11.77;;;3.45;;
76576;SDS011;65441;44.748;37.600;2023-08-17T00:52:06;10.82;;;3.42;;
76576;SDS011;65441;44.748;37.600;2023-08-17T00:54:34;10.63;;;3.22;;
76576;SDS011;65441;44.748;37.600;2023-08-17T00:57:04;8.13;;;3.30;;
76576;SDS011;65441;44.748;37.600;2023-08-17T00:59:32;7.75;;;3.15;;
76576;SDS011;65441;44.748;37.600;2023-08-17T01:02:01;9.55;;;3.22;;
76576;SDS011;65441;44.748;37.600;2023-08-17T01:04:30;9.15;;;3.67;;
76576;SDS011;65441;44.748;37.600;2023-08-17T01:06:59;11.05;;;3.42;;
76576;SDS011;65441;44.748;37.600;2023-08-17T01:09:27;7.93;;;3.30;;
76576;SDS011;65441;44.748;37.600;2023-08-17T01:11:57;6.43;;;3.08;;
76576;SDS011;65441;44.748;37.600;2023-08-17T01:14:32;9.90;;;3.15;;
76576;SDS011;65441;44.748;37.600;2023-08-17T01:17:12;8.52;;;3.20;;
76576;SDS011;65441;44.748;37.600;2023-08-17T01:19:48;7.90;;;3.17;;
76576;SDS011;65441;44.748;37.600;2023-08-17T01:22:18;8.32;;;3.60;;
76576;SDS011;65441;44.748;37.600;2023-08-17T01:24:50;12.45;;;3.33;;
76576;SDS011;65441;44.748;37.600;2023-08-17T01:27:23;9.50;;;3.58;;
76576;SDS011;65441;44.748;37.600;2023-08-17T01:29:52;9.18;;;3.58;;
76576;SDS011;65441;44.748;37.600;2023-08-17T01:32:22;13.27;;;3.42;;
76576;SDS011;65441;44.748;37.600;2023-08-17T01:34:57;9.30;;;3.20;;
76576;SDS011;65441;44.748;37.600;2023-08-17T01:37:29;11.77;;;3.47;;
76576;SDS011;65441;44.748;37.600;2023-08-17T01:40:02;10.88;;;2.75;;
76576;SDS011;65441;44.748;37.600;2023-08-17T01:42:31;8.90;;;2.95;;
76576;SDS011;65441;44.748;37.600;2023-08-17T01:45:00;6.68;;;2.65;;
76576;SDS011;65441;44.748;37.600;2023-08-17T01:47:29;6.03;;;2.92;;
76576;SDS011;65441;44.748;37.600;2023-08-17T01:49:58;5.88;;;3.15;;
76576;SDS011;65441;44.748;37.600;2023-08-17T01:52:26;10.73;;;3.08;;
76576;SDS011;65441;44.748;37.600;2023-08-17T01:54:55;7.85;;;2.80;;
76576;SDS011;65441;44.748;37.600;2023-08-17T01:57:24;10.93;;;3.05;;
76576;SDS011;65441;44.748;37.600;2023-08-17T01:59:52;7.18;;;3.25;;
76576;SDS011;65441;44.748;37.600;2023-08-17T02:02:21;5.95;;;2.60;;
76576;SDS011;65441;44.748;37.600;2023-08-17T02:04:49;9.32;;;2.88;;
76576;SDS011;65441;44.748;37.600;2023-08-17T02:07:17;7.10;;;3.15;;
76576;SDS011;65441;44.748;37.600;2023-08-17T02:09:48;8.18;;;3.72;;
76576;SDS011;65441;44.748;37.600;2023-08-17T02:12:17;10.90;;;3.00;;
76576;SDS011;65441;44.748;37.600;2023-08-17T02:14:47;7.65;;;2.70;;
76576;SDS011;65441;44.748;37.600;2023-08-17T02:17:15;11.50;;;3.30;;
76576;SDS011;65441;44.748;37.600;2023-08-17T02:19:45;9.80;;;3.05;;
76576;SDS011;65441;44.748;37.600;2023-08-17T02:22:14;10.10;;;3.65;;
76576;SDS011;65441;44.748;37.600;2023-08-17T02:24:42;10.57;;;3.20;;
76576;SDS011;65441;44.748;37.600;2023-08-17T02:27:12;10.65;;;3.55;;
76576;SDS011;65441;44.748;37.600;2023-08-17T02:29:40;7.65;;;2.95;;
76576;SDS011;65441;44.748;37.600;2023-08-17T02:32:10;9.32;;;2.63;;
76576;SDS011;65441;44.748;37.600;2023-08-17T02:34:38;9.30;;;3.10;;
76576;SDS011;65441;44.748;37.600;2023-08-17T02:37:06;8.65;;;2.70;;
76576;SDS011;65441;44.748;37.600;2023-08-17T02:39:34;9.70;;;2.97;;
76576;SDS011;65441;44.748;37.600;2023-08-17T02:42:03;9.75;;;3.20;;
76576;SDS011;65441;44.748;37.600;2023-08-17T02:44:31;7.88;;;2.85;;
76576;SDS011;65441;44.748;37.600;2023-08-17T02:46:59;8.48;;;2.83;;
76576;SDS011;65441;44.748;37.600;2023-08-17T02:49:29;6.65;;;3.05;;
76576;SDS011;65441;44.748;37.600;2023-08-17T02:51:57;7.25;;;3.10;;
76576;SDS011;65441;44.748;37.600;2023-08-17T02:54:25;9.30;;;3.10;;
76576;SDS011;65441;44.748;37.600;2023-08-17T02:56:53;9.13;;;3.10;;
76576;SDS011;65441;44.748;37.600;2023-08-17T02:59:21;9.25;;;3.20;;
76576;SDS011;65441;44.748;37.600;2023-08-17T03:01:49;13.63;;;3.40;;
76576;SDS011;65441;44.748;37.600;2023-08-17T03:04:18;9.20;;;2.92;;
76576;SDS011;65441;44.748;37.600;2023-08-17T03:06:47;8.48;;;3.10;;
76576;SDS011;65441;44.748;37.600;2023-08-17T03:09:15;10.30;;;2.95;;
76576;SDS011;65441;44.748;37.600;2023-08-17T03:11:47;9.48;;;3.25;;
76576;SDS011;65441;44.748;37.600;2023-08-17T03:14:15;9.57;;;3.15;;
76576;SDS011;65441;44.748;37.600;2023-08-17T03:16:43;6.50;;;2.60;;
76576;SDS011;65441;44.748;37.600;2023-08-17T03:19:11;6.72;;;2.92;;
76576;SDS011;65441;44.748;37.600;2023-08-17T03:21:42;10.43;;;2.13;;
76576;SDS011;65441;44.748;37.600;2023-08-17T03:24:12;10.65;;;2.78;;
76576;SDS011;65441;44.748;37.600;2023-08-17T03:26:40;7.63;;;2.80;;
76576;SDS011;65441;44.748;37.600;2023-08-17T03:29:08;9.70;;;3.00;;
76576;SDS011;65441;44.748;37.600;2023-08-17T03:31:37;8.02;;;2.75;;
76576;SDS011;65441;44.748;37.600;2023-08-17T03:34:07;17.67;;;3.42;;
76576;SDS011;65441;44.748;37.600;2023-08-17T03:36:35;10.65;;;2.85;;
76576;SDS011;65441;44.748;37.600;2023-08-17T03:39:03;12.77;;;3.17;;
76576;SDS011;65441;44.748;37.600;2023-08-17T03:41:33;8.60;;;3.30;;
76576;SDS011;65441;44.748;37.600;2023-08-17T03:44:03;10.23;;;2.80;;
76576;SDS011;65441;44.748;37.600;2023-08-17T03:46:33;10.48;;;2.92;;
76576;SDS011;65441;44.748;37.600;2023-08-17T03:49:01;10.00;;;3.75;;
76576;SDS011;65441;44.748;37.600;2023-08-17T03:51:29;10.25;;;3.00;;
76576;SDS011;65441;44.748;37.600;2023-08-17T03:53:57;9.80;;;2.92;;
76576;SDS011;65441;44.748;37.600;2023-08-17T03:56:26;14.57;;;4.32;;
76576;SDS011;65441;44.748;37.600;2023-08-17T03:58:55;12.65;;;3.40;;
76576;SDS011;65441;44.748;37.600;2023-08-17T04:01:23;8.13;;;3.85;;
76576;SDS011;65441;44.748;37.600;2023-08-17T04:03:52;10.55;;;3.38;;
76576;SDS011;65441;44.748;37.600;2023-08-17T04:06:20;9.80;;;3.25;;
76576;SDS011;65441;44.748;37.600;2023-08-17T04:08:48;12.48;;;3.05;;
76576;SDS011;65441;44.748;37.600;2023-08-17T04:11:16;12.65;;;3.35;;
76576;SDS011;65441;44.748;37.600;2023-08-17T04:13:47;7.60;;;3.10;;
76576;SDS011;65441;44.748;37.600;2023-08-17T04:16:16;6.72;;;3.03;;
76576;SDS011;65441;44.748;37.600;2023-08-17T04:18:45;7.88;;;2.97;;
76576;SDS011;65441;44.748;37.600;2023-08-17T04:21:14;8.77;;;3.20;;
76576;SDS011;65441;44.748;37.600;2023-08-17T04:23:42;10.15;;;2.95;;
76576;SDS011;65441;44.748;37.600;2023-08-17T04:26:12;8.48;;;3.20;;
76576;SDS011;65441;44.748;37.600;2023-08-17T04:28:40;7.28;;;2.83;;
76576;SDS011;65441;44.748;37.600;2023-08-17T04:31:08;8.45;;;2.92;;
76576;SDS011;65441;44.748;37.600;2023-08-17T04:33:41;8.13;;;3.15;;
76576;SDS011;65441;44.748;37.600;2023-08-17T04:36:09;8.30;;;3.00;;
76576;SDS011;65441;44.748;37.600;2023-08-17T04:38:37;8.65;;;2.67;;
76576;SDS011;65441;44.748;37.600;2023-08-17T04:41:06;11.88;;;3.08;;
76576;SDS011;65441;44.748;37.600;2023-08-17T04:43:36;8.68;;;2.88;;
76576;SDS011;65441;44.748;37.600;2023-08-17T04:46:05;13.20;;;3.67;;
76576;SDS011;65441;44.748;37.600;2023-08-17T04:48:33;10.48;;;3.20;;
76576;SDS011;65441;44.748;37.600;2023-08-17T04:51:03;8.77;;;2.78;;
76576;SDS011;65441;44.748;37.600;2023-08-17T04:53:33;10.38;;;2.88;;
76576;SDS011;65441;44.748;37.600;2023-08-17T04:56:02;9.35;;;3.10;;
76576;SDS011;65441;44.748;37.600;2023-08-17T04:58:31;7.97;;;2.80;;
76576;SDS011;65441;44.748;37.600;2023-08-17T05:01:00;10.43;;;3.28;;
76576;SDS011;65441;44.748;37.600;2023-08-17T05:03:28;9.75;;;3.08;;
76576;SDS011;65441;44.748;37.600;2023-08-17T05:05:57;11.43;;;2.88;;
76576;SDS011;65441;44.748;37.600;2023-08-17T05:08:29;7.15;;;2.55;;
76576;SDS011;65441;44.748;37.600;2023-08-17T05:10:57;7.78;;;2.95;;
76576;SDS011;65441;44.748;37.600;2023-08-17T05:13:28;8.10;;;2.70;;
76576;SDS011;65441;44.748;37.600;2023-08-17T05:16:00;7.80;;;2.13;;
76576;SDS011;65441;44.748;37.600;2023-08-17T05:18:30;11.70;;;2.35;;
76576;SDS011;65441;44.748;37.600;2023-08-17T05:20:58;11.75;;;2.72;;
76576;SDS011;65441;44.748;37.600;2023-08-17T05:23:27;7.93;;;2.53;;
76576;SDS011;65441;44.748;37.600;2023-08-17T05:25:56;14.00;;;2.90;;
76576;SDS011;65441;44.748;37.600;2023-08-17T05:28:28;6.65;;;2.63;;
76576;SDS011;65441;44.748;37.600;2023-08-17T05:31:02;8.23;;;2.60;;
76576;SDS011;65441;44.748;37.600;2023-08-17T05:33:39;8.07;;;2.53;;
76576;SDS011;65441;44.748;37.600;2023-08-17T05:36:08;12.10;;;2.78;;
76576;SDS011;65441;44.748;37.600;2023-08-17T05:38:42;8.48;;;2.42;;
76576;SDS011;65441;44.748;37.600;2023-08-17T05:41:11;9.68;;;2.83;;
76576;SDS011;65441;44.748;37.600;2023-08-17T05:43:40;8.35;;;2.13;;
76576;SDS011;65441;44.748;37.600;2023-08-17T05:46:11;8.30;;;2.25;;
76576;SDS011;65441;44.748;37.600;2023-08-17T05:48:39;10.13;;;2.30;;
76576;SDS011;65441;44.748;37.600;2023-08-17T05:51:08;10.63;;;2.45;;
76576;SDS011;65441;44.748;37.600;2023-08-17T05:53:36;8.30;;;2.30;;
76576;SDS011;65441;44.748;37.600;2023-08-17T05:56:06;9.98;;;2.72;;
76576;SDS011;65441;44.748;37.600;2023-08-17T05:58:34;8.02;;;2.30;;
76576;SDS011;65441;44.748;37.600;2023-08-17T06:01:05;10.35;;;2.22;;
76576;SDS011;65441;44.748;37.600;2023-08-17T06:03:37;8.25;;;2.70;;
76576;SDS011;65441;44.748;37.600;2023-08-17T06:06:06;8.20;;;2.22;;
76576;SDS011;65441;44.748;37.600;2023-08-17T06:08:35;6.82;;;2.50;;
76576;SDS011;65441;44.748;37.600;2023-08-17T06:11:03;7.60;;;2.33;;
76576;SDS011;65441;44.748;37.600;2023-08-17T06:13:33;8.77;;;2.20;;
76576;SDS011;65441;44.748;37.600;2023-08-17T06:16:02;9.25;;;2.85;;
76576;SDS011;65441;44.748;37.600;2023-08-17T06:18:33;11.10;;;2.20;;
76576;SDS011;65441;44.748;37.600;2023-08-17T06:21:06;10.00;;;2.60;;
76576;SDS011;65441;44.748;37.600;2023-08-17T06:23:38;7.93;;;2.40;;
76576;SDS011;65441;44.748;37.600;2023-08-17T06:26:08;7.63;;;2.55;;
76576;SDS011;65441;44.748;37.600;2023-08-17T06:28:40;5.55;;;2.45;;
76576;SDS011;65441;44.748;37.600;2023-08-17T06:31:14;7.25;;;2.28;;
76576;SDS011;65441;44.748;37.600;2023-08-17T06:33:43;9.80;;;2.70;;
76576;SDS011;65441;44.748;37.600;2023-08-17T06:36:11;6.68;;;2.70;;
76576;SDS011;65441;44.748;37.600;2023-08-17T06:38:42;7.60;;;2.30;;
76576;SDS011;65441;44.748;37.600;2023-08-17T06:41:13;6.38;;;2.20;;
76576;SDS011;65441;44.748;37.600;2023-08-17T06:43:41;10.93;;;2.47;;
76576;SDS011;65441;44.748;37.600;2023-08-17T06:46:11;8.07;;;2.28;;
76576;SDS011;65441;44.748;37.600;2023-08-17T06:48:40;10.13;;;3.63;;
76576;SDS011;65441;44.748;37.600;2023-08-17T06:51:08;13.20;;;2.40;;
76576;SDS011;65441;44.748;37.600;2023-08-17T06:53:39;11.48;;;2.80;;
76576;SDS011;65441;44.748;37.600;2023-08-17T06:56:13;7.47;;;2.40;;
76576;SDS011;65441;44.748;37.600;2023-08-17T06:58:42;7.03;;;2.25;;
76576;SDS011;65441;44.748;37.600;2023-08-17T07:01:13;7.72;;;2.78;;
76576;SDS011;65441;44.748;37.600;2023-08-17T07:03:47;6.30;;;2.42;;
76576;SDS011;65441;44.748;37.600;2023-08-17T07:06:21;12.48;;;2.22;;
76576;SDS011;65441;44.748;37.600;2023-08-17T07:08:54;7.75;;;2.30;;
76576;SDS011;65441;44.748;37.600;2023-08-17T07:11:25;10.90;;;2.30;;
76576;SDS011;65441;44.748;37.600;2023-08-17T07:13:53;6.88;;;2.25;;
76576;SDS011;65441;44.748;37.600;2023-08-17T07:16:25;12.93;;;2.85;;
76576;SDS011;65441;44.748;37.600;2023-08-17T07:18:55;13.77;;;2.60;;
76576;SDS011;65441;44.748;37.600;2023-08-17T07:21:26;12.55;;;3.47;;
76576;SDS011;65441;44.748;37.600;2023-08-17T07:23:56;5.97;;;2.53;;
76576;SDS011;65441;44.748;37.600;2023-08-17T07:26:26;5.13;;;2.25;;
76576;SDS011;65441;44.748;37.600;2023-08-17T07:28:58;7.05;;;2.50;;
76576;SDS011;65441;44.748;37.600;2023-08-17T07:31:27;10.30;;;2.47;;
76576;SDS011;65441;44.748;37.600;2023-08-17T07:33:58;10.73;;;2.65;;
76576;SDS011;65441;44.748;37.600;2023-08-17T07:36:32;6.88;;;2.45;;
76576;SDS011;65441;44.748;37.600;2023-08-17T07:39:01;12.50;;;3.72;;
76576;SDS011;65441;44.748;37.600;2023-08-17T07:41:34;13.13;;;2.58;;
76576;SDS011;65441;44.748;37.600;2023-08-17T07:44:05;11.70;;;2.47;;
76576;SDS011;65441;44.748;37.600;2023-08-17T07:46:37;7.63;;;2.53;;
76576;SDS011;65441;44.748;37.600;2023-08-17T07:49:10;6.88;;;2.35;;
76576;SDS011;65441;44.748;37.600;2023-08-17T07:51:39;10.48;;;2.80;;
76576;SDS011;65441;44.748;37.600;2023-08-17T07:54:10;12.38;;;2.38;;
76576;SDS011;65441;44.748;37.600;2023-08-17T07:56:42;8.68;;;2.65;;
76576;SDS011;65441;44.748;37.600;2023-08-17T07:59:14;9.65;;;2.50;;
76576;SDS011;65441;44.748;37.600;2023-08-17T08:01:48;8.45;;;2.63;;
76576;SDS011;65441;44.748;37.600;2023-08-17T08:04:20;7.90;;;2.30;;
76576;SDS011;65441;44.748;37.600;2023-08-17T08:06:52;9.00;;;2.60;;
76576;SDS011;65441;44.748;37.600;2023-08-17T08:09:23;8.55;;;2.60;;
76576;SDS011;65441;44.748;37.600;2023-08-17T08:11:53;5.72;;;2.30;;
76576;SDS011;65441;44.748;37.600;2023-08-17T08:14:23;9.10;;;2.70;;
76576;SDS011;65441;44.748;37.600;2023-08-17T08:16:52;8.75;;;2.60;;
76576;SDS011;65441;44.748;37.600;2023-08-17T08:19:25;7.35;;;2.40;;
76576;SDS011;65441;44.748;37.600;2023-08-17T08:21:54;9.85;;;2.50;;
76576;SDS011;65441;44.748;37.600;2023-08-17T08:24:22;10.57;;;2.72;;
76576;SDS011;65441;44.748;37.600;2023-08-17T08:26:51;6.72;;;2.45;;
76576;SDS011;65441;44.748;37.600;2023-08-17T08:29:22;6.72;;;2.47;;
76576;SDS011;65441;44.748;37.600;2023-08-17T08:31:51;11.35;;;2.47;;
76576;SDS011;65441;44.748;37.600;2023-08-17T08:34:19;11.20;;;2.70;;
76576;SDS011;65441;44.748;37.600;2023-08-17T08:36:50;9.32;;;2.42;;
76576;SDS011;65441;44.748;37.600;2023-08-17T08:39:19;6.55;;;2.28;;
76576;SDS011;65441;44.748;37.600;2023-08-17T08:41:48;8.25;;;2.63;;
76576;SDS011;65441;44.748;37.600;2023-08-17T08:44:16;10.90;;;2.67;;
76576;SDS011;65441;44.748;37.600;2023-08-17T08:46:48;7.88;;;2.80;;
76576;SDS011;65441;44.748;37.600;2023-08-17T08:49:20;10.32;;;3.13;;
76576;SDS011;65441;44.748;37.600;2023-08-17T08:51:52;8.02;;;2.55;;
76576;SDS011;65441;44.748;37.600;2023-08-17T08:54:25;9.57;;;2.45;;
76576;SDS011;65441;44.748;37.600;2023-08-17T08:56:58;9.05;;;2.78;;
76576;SDS011;65441;44.748;37.600;2023-08-17T08:59:31;10.00;;;2.65;;
76576;SDS011;65441;44.748;37.600;2023-08-17T09:02:03;13.32;;;3.45;;
76576;SDS011;65441;44.748;37.600;2023-08-17T09:04:33;9.70;;;3.30;;
76576;SDS011;65441;44.748;37.600;2023-08-17T09:07:03;7.82;;;2.92;;
76576;SDS011;65441;44.748;37.600;2023-08-17T09:09:32;12.50;;;3.63;;
76576;SDS011;65441;44.748;37.600;2023-08-17T09:12:03;11.60;;;3.00;;
76576;SDS011;65441;44.748;37.600;2023-08-17T09:14:32;10.77;;;3.60;;
76576;SDS011;65441;44.748;37.600;2023-08-17T09:17:01;10.43;;;3.60;;
76576;SDS011;65441;44.748;37.600;2023-08-17T09:19:31;11.85;;;3.15;;
76576;SDS011;65441;44.748;37.600;2023-08-17T09:22:00;9.95;;;3.10;;
76576;SDS011;65441;44.748;37.600;2023-08-17T09:24:33;6.45;;;3.00;;
76576;SDS011;65441;44.748;37.600;2023-08-17T09:27:03;12.55;;;3.13;;
76576;SDS011;65441;44.748;37.600;2023-08-17T09:29:32;7.40;;;2.90;;
76576;SDS011;65441;44.748;37.600;2023-08-17T09:32:07;8.02;;;2.58;;
76576;SDS011;65441;44.748;37.600;2023-08-17T09:34:37;9.70;;;2.83;;
76576;SDS011;65441;44.748;37.600;2023-08-17T09:37:06;9.60;;;2.90;;
76576;SDS011;65441;44.748;37.600;2023-08-17T09:39:37;7.97;;;2.42;;
76576;SDS011;65441;44.748;37.600;2023-08-17T09:42:11;8.13;;;2.75;;
76576;SDS011;65441;44.748;37.600;2023-08-17T09:44:46;6.88;;;2.40;;
76576;SDS011;65441;44.748;37.600;2023-08-17T09:47:20;11.25;;;2.70;;
76576;SDS011;65441;44.748;37.600;2023-08-17T09:49:50;10.90;;;2.80;;
76576;SDS011;65441;44.748;37.600;2023-08-17T09:52:22;9.38;;;2.30;;
76576;SDS011;65441;44.748;37.600;2023-08-17T09:54:51;6.25;;;2.20;;
76576;SDS011;65441;44.748;37.600;2023-08-17T09:57:23;12.15;;;3.42;;
76576;SDS011;65441;44.748;37.600;2023-08-17T09:59:53;12.75;;;3.10;;
76576;SDS011;65441;44.748;37.600;2023-08-17T10:02:24;8.50;;;2.45;;
76576;SDS011;65441;44.748;37.600;2023-08-17T10:04:54;8.20;;;3.15;;
76576;SDS011;65441;44.748;37.600;2023-08-17T10:07:29;10.50;;;2.63;;
76576;SDS011;65441;44.748;37.600;2023-08-17T10:09:59;8.45;;;2.42;;
76576;SDS011;65441;44.748;37.600;2023-08-17T10:12:33;6.82;;;2.55;;
76576;SDS011;65441;44.748;37.600;2023-08-17T10:15:09;8.38;;;2.50;;
76576;SDS011;65441;44.748;37.600;2023-08-17T10:17:45;11.52;;;2.42;;
76576;SDS011;65441;44.748;37.600;2023-08-17T10:20:21;8.02;;;2.33;;
76576;SDS011;65441;44.748;37.600;2023-08-17T10:22:52;6.85;;;2.45;;
76576;SDS011;65441;44.748;37.600;2023-08-17T10:25:29;11.98;;;2.50;;
76576;SDS011;65441;44.748;37.600;2023-08-17T10:27:59;6.22;;;2.17;;
76576;SDS011;65441;44.748;37.600;2023-08-17T10:30:29;10.90;;;2.30;;
76576;SDS011;65441;44.748;37.600;2023-08-17T10:33:00;9.75;;;2.30;;
76576;SDS011;65441;44.748;37.600;2023-08-17T10:35:30;9.73;;;2.15;;
76576;SDS011;65441;44.748;37.600;2023-08-17T10:37:59;11.13;;;2.30;;
76576;SDS011;65441;44.748;37.600;2023-08-17T10:40:28;10.73;;;2.50;;
76576;SDS011;65441;44.748;37.600;2023-08-17T10:43:02;6.32;;;2.20;;
76576;SDS011;65441;44.748;37.600;2023-08-17T10:45:32;6.57;;;1.90;;
76576;SDS011;65441;44.748;37.600;2023-08-17T10:51:00;7.88;;;2.00;;
76576;SDS011;65441;44.748;37.600;2023-08-17T10:53:33;7.45;;;2.13;;
76576;SDS011;65441;44.748;37.600;2023-08-17T10:56:06;8.77;;;2.00;;
76576;SDS011;65441;44.748;37.600;2023-08-17T10:58:37;7.85;;;2.40;;
76576;SDS011;65441;44.748;37.600;2023-08-17T11:01:06;7.50;;;1.92;;
76576;SDS011;65441;44.748;37.600;2023-08-17T11:03:36;8.93;;;2.22;;
76576;SDS011;65441;44.748;37.600;2023-08-17T11:06:15;7.80;;;2.05;;
76576;SDS011;65441;44.748;37.600;2023-08-17T11:08:52;6.55;;;2.00;;
76576;SDS011;65441;44.748;37.600;2023-08-17T11:11:22;6.78;;;1.80;;
76576;SDS011;65441;44.748;37.600;2023-08-17T11:13:52;8.70;;;2.08;;
76576;SDS011;65441;44.748;37.600;2023-08-17T11:16:21;15.20;;;2.75;;
76576;SDS011;65441;44.748;37.600;2023-08-17T11:18:52;6.93;;;2.20;;
76576;SDS011;65441;44.748;37.600;2023-08-17T11:21:24;10.32;;;2.40;;
76576;SDS011;65441;44.748;37.600;2023-08-17T11:23:55;7.00;;;2.72;;
76576;SDS011;65441;44.748;37.600;2023-08-17T11:26:25;9.63;;;2.38;;
76576;SDS011;65441;44.748;37.600;2023-08-17T11:28:56;8.68;;;2.38;;
76576;SDS011;65441;44.748;37.600;2023-08-17T11:31:25;6.22;;;2.28;;
76576;SDS011;65441;44.748;37.600;2023-08-17T11:33:55;7.85;;;2.10;;
76576;SDS011;65441;44.748;37.600;2023-08-17T11:36:28;6.97;;;2.33;;
76576;SDS011;65441;44.748;37.600;2023-08-17T11:38:57;6.75;;;2.38;;
76576;SDS011;65441;44.748;37.600;2023-08-17T11:41:26;6.22;;;2.50;;
76576;SDS011;65441;44.748;37.600;2023-08-17T11:43:55;10.15;;;2.30;;
76576;SDS011;65441;44.748;37.600;2023-08-17T11:46:28;9.27;;;2.60;;
76576;SDS011;65441;44.748;37.600;2023-08-17T11:49:01;13.27;;;2.67;;
76576;SDS011;65441;44.748;37.600;2023-08-17T11:51:30;10.55;;;3.22;;
76576;SDS011;65441;44.748;37.600;2023-08-17T11:54:01;9.35;;;2.53;;
76576;SDS011;65441;44.748;37.600;2023-08-17T11:56:33;6.18;;;2.38;;
76576;SDS011;65441;44.748;37.600;2023-08-17T11:59:10;8.40;;;2.45;;
76576;SDS011;65441;44.748;37.600;2023-08-17T12:01:46;9.20;;;2.63;;
76576;SDS011;65441;44.748;37.600;2023-08-17T12:04:19;11.13;;;2.60;;
76576;SDS011;65441;44.748;37.600;2023-08-17T12:06:49;7.53;;;2.72;;
76576;SDS011;65441;44.748;37.600;2023-08-17T12:09:20;7.82;;;2.00;;
76576;SDS011;65441;44.748;37.600;2023-08-17T12:11:54;7.88;;;2.60;;
76576;SDS011;65441;44.748;37.600;2023-08-17T12:14:27;13.07;;;2.42;;
76576;SDS011;65441;44.748;37.600;2023-08-17T12:16:58;9.27;;;2.30;;
76576;SDS011;65441;44.748;37.600;2023-08-17T12:19:29;7.68;;;2.35;;
76576;SDS011;65441;44.748;37.600;2023-08-17T12:22:03;11.15;;;2.58;;
76576;SDS011;65441;44.748;37.600;2023-08-17T12:24:37;13.48;;;2.78;;
76576;SDS011;65441;44.748;37.600;2023-08-17T12:27:12;9.15;;;2.95;;
76576;SDS011;65441;44.748;37.600;2023-08-17T12:29:46;9.10;;;2.53;;
76576;SDS011;65441;44.748;37.600;2023-08-17T12:32:16;10.98;;;2.60;;
76576;SDS011;65441;44.748;37.600;2023-08-17T12:34:47;10.52;;;2.72;;
76576;SDS011;65441;44.748;37.600;2023-08-17T12:37:18;12.27;;;2.45;;
76576;SDS011;65441;44.748;37.600;2023-08-17T12:39:50;6.30;;;1.92;;
76576;SDS011;65441;44.748;37.600;2023-08-17T12:42:21;5.85;;;1.80;;
76576;SDS011;65441;44.748;37.600;2023-08-17T12:44:50;7.53;;;2.75;;
76576;SDS011;65441;44.748;37.600;2023-08-17T12:47:19;7.07;;;1.95;;
76576;SDS011;65441;44.748;37.600;2023-08-17T12:49:49;6.03;;;2.10;;
76576;SDS011;65441;44.748;37.600;2023-08-17T12:52:17;7.18;;;2.03;;
76576;SDS011;65441;44.748;37.600;2023-08-17T12:54:46;6.53;;;2.13;;
76576;SDS011;65441;44.748;37.600;2023-08-17T12:57:14;10.20;;;2.25;;
76576;SDS011;65441;44.748;37.600;2023-08-17T12:59:43;10.30;;;2.30;;
76576;SDS011;65441;44.748;37.600;2023-08-17T13:02:11;6.60;;;1.98;;
76576;SDS011;65441;44.748;37.600;2023-08-17T13:04:41;6.32;;;2.05;;
76576;SDS011;65441;44.748;37.600;2023-08-17T13:07:10;7.13;;;1.90;;
76576;SDS011;65441;44.748;37.600;2023-08-17T13:09:39;6.50;;;2.13;;
76576;SDS011;65441;44.748;37.600;2023-08-17T13:12:14;10.98;;;2.10;;
76576;SDS011;65441;44.748;37.600;2023-08-17T13:14:43;9.18;;;1.90;;
76576;SDS011;65441;44.748;37.600;2023-08-17T13:17:13;8.18;;;2.10;;
76576;SDS011;65441;44.748;37.600;2023-08-17T13:19:43;5.68;;;2.22;;
76576;SDS011;65441;44.748;37.600;2023-08-17T13:22:14;7.40;;;3.25;;
76576;SDS011;65441;44.748;37.600;2023-08-17T13:24:43;8.85;;;1.95;;
76576;SDS011;65441;44.748;37.600;2023-08-17T13:27:11;6.47;;;2.08;;
76576;SDS011;65441;44.748;37.600;2023-08-17T13:29:42;6.55;;;2.22;;
76576;SDS011;65441;44.748;37.600;2023-08-17T13:32:11;9.23;;;2.10;;
76576;SDS011;65441;44.748;37.600;2023-08-17T13:34:40;8.88;;;2.42;;
76576;SDS011;65441;44.748;37.600;2023-08-17T13:37:11;5.80;;;2.30;;
76576;SDS011;65441;44.748;37.600;2023-08-17T13:39:42;7.03;;;2.15;;
76576;SDS011;65441;44.748;37.600;2023-08-17T13:42:15;8.32;;;2.50;;
76576;SDS011;65441;44.748;37.600;2023-08-17T13:44:45;6.00;;;1.80;;
76576;SDS011;65441;44.748;37.600;2023-08-17T13:47:14;6.10;;;2.13;;
76576;SDS011;65441;44.748;37.600;2023-08-17T13:49:44;9.35;;;2.20;;
76576;SDS011;65441;44.748;37.600;2023-08-17T13:52:13;8.07;;;1.92;;
76576;SDS011;65441;44.748;37.600;2023-08-17T13:54:45;6.85;;;1.98;;
76576;SDS011;65441;44.748;37.600;2023-08-17T13:57:14;8.90;;;1.95;;
76576;SDS011;65441;44.748;37.600;2023-08-17T13:59:48;9.90;;;2.05;;
76576;SDS011;65441;44.748;37.600;2023-08-17T14:02:19;9.73;;;1.95;;
76576;SDS011;65441;44.748;37.600;2023-08-17T14:04:48;6.47;;;1.98;;
76576;SDS011;65441;44.748;37.600;2023-08-17T14:07:17;8.93;;;1.88;;
76576;SDS011;65441;44.748;37.600;2023-08-17T14:09:48;7.15;;;2.33;;
76576;SDS011;65441;44.748;37.600;2023-08-17T14:12:18;9.38;;;1.88;;
76576;SDS011;65441;44.748;37.600;2023-08-17T14:14:47;6.60;;;2.00;;
76576;SDS011;65441;44.748;37.600;2023-08-17T14:17:15;8.75;;;1.95;;
76576;SDS011;65441;44.748;37.600;2023-08-17T14:19:46;8.52;;;1.85;;
76576;SDS011;65441;44.748;37.600;2023-08-17T14:22:19;6.18;;;1.98;;
76576;SDS011;65441;44.748;37.600;2023-08-17T14:24:54;6.15;;;2.10;;
76576;SDS011;65441;44.748;37.600;2023-08-17T14:27:28;7.60;;;2.30;;
76576;SDS011;65441;44.748;37.600;2023-08-17T14:30:02;7.07;;;2.60;;
76576;SDS011;65441;44.748;37.600;2023-08-17T14:32:31;11.75;;;2.35;;
76576;SDS011;65441;44.748;37.600;2023-08-17T14:35:01;5.13;;;1.40;;
76576;SDS011;65441;44.748;37.600;2023-08-17T14:37:30;7.32;;;1.90;;
76576;SDS011;65441;44.748;37.600;2023-08-17T14:40:00;7.20;;;1.90;;
76576;SDS011;65441;44.748;37.600;2023-08-17T14:42:29;6.57;;;1.60;;
76576;SDS011;65441;44.748;37.600;2023-08-17T14:44:58;7.10;;;1.92;;
76576;SDS011;65441;44.748;37.600;2023-08-17T14:47:26;7.07;;;1.90;;
76576;SDS011;65441;44.748;37.600;2023-08-17T14:49:55;6.22;;;1.80;;